createdAt,value
2019-05-20T00:01:45.381Z,77.33
2019-05-20T00:04:13.795Z,77.90
2019-05-20T00:06:42.209Z,77.88
2019-05-20T00:09:10.625Z,78.18
2019-05-20T00:11:39.033Z,78.03
2019-05-20T00:14:07.518Z,77.96
2019-05-20T00:16:36.225Z,78.21
2019-05-20T00:19:04.651Z,78.12
2019-05-20T00:21:33.145Z,77.81
2019-05-20T00:24:01.565Z,77.65
2019-05-20T00:26:29.979Z,77.99
2019-05-20T00:28:58.730Z,77.54
2019-05-20T00:31:27.149Z,77.77
2019-05-20T00:33:55.562Z,78.12
2019-05-20T00:36:23.968Z,78.48
2019-05-20T00:39:10.607Z,77.59
2019-05-20T00:41:38.997Z,77.92
2019-05-20T00:44:07.445Z,78.23
2019-05-20T00:46:35.838Z,77.85
2019-05-20T00:49:04.331Z,78.42
2019-05-20T00:51:32.748Z,78.88
2019-05-20T00:54:01.183Z,79.56
2019-05-20T00:56:29.586Z,78.78
2019-05-20T00:58:58.008Z,78.06
2019-05-20T01:01:26.451Z,77.94
2019-05-20T01:03:54.878Z,77.98
2019-05-20T01:06:23.300Z,78.53
2019-05-20T01:08:51.693Z,78.31
2019-05-20T01:11:20.187Z,78.82
2019-05-20T01:13:48.891Z,78.59
2019-05-20T01:16:17.310Z,78.77
2019-05-20T01:18:45.736Z,78.80
2019-05-20T01:21:14.137Z,78.67
2019-05-20T01:23:42.557Z,78.34
2019-05-20T01:26:10.961Z,78.31
2019-05-20T01:28:39.355Z,78.31
2019-05-20T01:31:07.803Z,78.55
2019-05-20T01:33:36.205Z,78.54
2019-05-20T01:36:05.743Z,78.69
2019-05-20T01:38:34.518Z,78.69
2019-05-20T01:41:02.926Z,79.49
2019-05-20T01:43:31.367Z,78.49
2019-05-20T01:45:59.785Z,78.47
2019-05-20T01:48:28.188Z,78.01
2019-05-20T01:50:56.622Z,77.68
2019-05-20T01:53:25.025Z,77.44
2019-05-20T01:55:53.435Z,77.35
2019-05-20T01:58:21.862Z,77.35
2019-05-20T02:00:50.268Z,77.40
2019-05-20T02:03:31.022Z,77.46
2019-05-20T02:05:48.970Z,77.38
2019-05-20T02:08:17.621Z,77.42
2019-05-20T02:10:46.056Z,77.33
2019-05-20T02:13:14.459Z,77.18
2019-05-20T02:15:50.740Z,77.24
2019-05-20T02:18:19.419Z,77.24
2019-05-20T02:20:47.841Z,77.52
2019-05-20T02:23:16.833Z,77.81
2019-05-20T02:25:47.355Z,77.13
2019-05-20T02:28:15.817Z,77.16
2019-05-20T02:30:44.318Z,77.30
2019-05-20T02:33:13.070Z,76.62
2019-05-20T02:35:41.756Z,76.98
2019-05-20T02:38:10.157Z,77.39
2019-05-20T02:40:38.602Z,77.25
2019-05-20T02:43:07.019Z,76.85
2019-05-20T02:45:35.447Z,77.34
2019-05-20T02:48:03.914Z,76.69
2019-05-20T02:50:32.337Z,76.39
2019-05-20T02:53:00.738Z,76.63
2019-05-20T02:55:29.140Z,75.95
2019-05-20T02:57:57.582Z,75.65
2019-05-20T03:00:25.997Z,75.21
2019-05-20T03:02:54.431Z,74.77
2019-05-20T03:05:22.846Z,74.49
2019-05-20T03:07:51.269Z,75.09
2019-05-20T03:10:19.705Z,75.15
2019-05-20T03:12:48.117Z,75.50
2019-05-20T03:15:16.604Z,75.56
2019-05-20T03:17:45.035Z,75.51
2019-05-20T03:20:13.577Z,75.56
2019-05-20T03:22:42.151Z,75.94
2019-05-20T03:25:10.797Z,76.15
2019-05-20T03:27:39.286Z,76.07
2019-05-20T03:30:09.435Z,76.20
2019-05-20T03:32:37.866Z,76.27
2019-05-20T03:35:07.661Z,77.02
2019-05-20T03:37:36.099Z,76.42
2019-05-20T03:40:07.706Z,76.28
2019-05-20T03:42:36.197Z,76.76
2019-05-20T03:45:05.548Z,76.26
2019-05-20T03:47:33.988Z,75.88
2019-05-20T03:50:02.361Z,75.78
2019-05-20T03:52:30.803Z,76.18
2019-05-20T03:54:59.208Z,75.28
2019-05-20T03:57:27.619Z,75.10
2019-05-20T03:59:56.026Z,75.01
2019-05-20T04:02:24.453Z,75.23
2019-05-20T04:05:02.020Z,75.07
2019-05-20T04:07:23.274Z,75.75
2019-05-20T04:09:51.911Z,75.84
2019-05-20T04:12:20.594Z,75.44
2019-05-20T04:14:49.021Z,75.68
2019-05-20T04:17:17.424Z,75.88
2019-05-20T04:19:45.858Z,75.67
2019-05-20T04:22:14.258Z,76.23
2019-05-20T04:24:42.674Z,75.64
2019-05-20T04:27:11.101Z,75.83
2019-05-20T04:29:39.511Z,75.93
2019-05-20T04:32:07.913Z,75.62
2019-05-20T04:34:36.410Z,75.52
2019-05-20T04:37:04.870Z,75.47
2019-05-20T04:39:33.298Z,75.33
2019-05-20T04:42:05.977Z,75.72
2019-05-20T04:44:31.847Z,75.91
2019-05-20T04:47:00.266Z,75.04
2019-05-20T04:49:28.698Z,75.33
2019-05-20T04:51:57.087Z,76.30
2019-05-20T04:54:25.540Z,75.29
2019-05-20T04:56:53.915Z,75.18
2019-05-20T04:59:22.588Z,75.40
2019-05-20T05:01:51.014Z,75.66
2019-05-20T05:04:19.404Z,75.39
2019-05-20T05:06:47.840Z,76.07
2019-05-20T05:09:16.296Z,76.20
2019-05-20T05:11:44.695Z,74.38
2019-05-20T05:14:13.177Z,74.95
2019-05-20T05:16:41.618Z,73.40
2019-05-20T05:19:10.028Z,73.08
2019-05-20T05:21:38.518Z,72.61
2019-05-20T05:24:06.942Z,73.12
2019-05-20T05:26:35.422Z,73.98
2019-05-20T05:29:04.202Z,72.89
2019-05-20T05:31:32.652Z,72.88
2019-05-20T05:34:01.053Z,72.75
2019-05-20T05:36:29.458Z,72.57
2019-05-20T05:38:57.878Z,72.86
2019-05-20T05:41:26.365Z,72.22
2019-05-20T05:43:54.762Z,72.03
2019-05-20T05:46:23.199Z,71.77
2019-05-20T05:48:51.611Z,71.91
2019-05-20T05:51:21.201Z,71.73
2019-05-20T05:53:49.593Z,71.96
2019-05-20T05:56:18.031Z,72.06
2019-05-20T05:58:46.535Z,71.32
2019-05-20T06:01:14.944Z,70.83
2019-05-20T06:03:43.341Z,71.07
2019-05-20T06:06:13.325Z,70.33
2019-05-20T06:08:42.263Z,70.34
2019-05-20T06:11:10.690Z,70.43
2019-05-20T06:13:39.090Z,70.56
2019-05-20T06:16:07.510Z,70.03
2019-05-20T06:18:35.912Z,70.41
2019-05-20T06:21:04.699Z,70.99
2019-05-20T06:23:33.335Z,69.69
2019-05-20T06:26:01.785Z,70.20
2019-05-20T06:28:30.213Z,69.24
2019-05-20T06:30:58.651Z,70.16
2019-05-20T06:33:27.205Z,69.03
2019-05-20T06:35:55.615Z,67.90
2019-05-20T06:38:35.339Z,66.71
2019-05-20T06:41:05.624Z,66.39
2019-05-20T06:43:34.097Z,67.69
2019-05-20T06:46:02.526Z,66.72
2019-05-20T06:48:30.917Z,66.98
2019-05-20T06:50:59.348Z,66.60
2019-05-20T06:53:28.126Z,66.24
2019-05-20T06:55:56.560Z,66.45
2019-05-20T06:58:24.958Z,65.07
2019-05-20T07:00:53.393Z,65.02
2019-05-20T07:03:21.844Z,64.52
2019-05-20T07:05:50.252Z,63.72
2019-05-20T07:08:19.227Z,64.01
2019-05-20T07:10:48.413Z,63.52
2019-05-20T07:13:17.487Z,64.56
2019-05-20T07:15:46.502Z,64.45
2019-05-20T07:18:14.902Z,64.31
2019-05-20T07:20:44.136Z,63.37
2019-05-20T07:23:12.726Z,63.20
2019-05-20T07:25:41.189Z,62.14
2019-05-20T07:28:09.798Z,62.28
2019-05-20T07:30:38.557Z,62.35
2019-05-20T07:33:08.120Z,62.75
2019-05-20T07:35:37.402Z,63.00
2019-05-20T07:38:06.832Z,62.06
2019-05-20T07:40:36.289Z,62.43
2019-05-20T07:43:05.505Z,62.02
2019-05-20T07:45:35.327Z,61.41
2019-05-20T07:48:04.779Z,61.35
2019-05-20T07:50:36.083Z,62.01
2019-05-20T07:53:06.418Z,62.60
2019-05-20T07:55:37.894Z,62.33
2019-05-20T07:58:08.466Z,61.94
2019-05-20T08:00:37.277Z,61.56
2019-05-20T08:05:47.353Z,60.65
2019-05-20T08:08:15.840Z,60.40
2019-05-20T08:10:44.251Z,59.74
2019-05-20T08:13:12.748Z,59.92
2019-05-20T08:15:41.158Z,60.78
2019-05-20T08:18:09.816Z,60.51
2019-05-20T08:20:38.271Z,61.52
2019-05-20T08:23:06.676Z,61.66
2019-05-20T08:25:35.377Z,60.26
2019-05-20T08:28:03.851Z,60.69
2019-05-20T08:30:37.265Z,60.80
2019-05-20T08:34:56.354Z,61.16
2019-05-20T08:37:24.752Z,60.02
2019-05-20T08:39:53.177Z,59.57
2019-05-20T08:42:21.581Z,60.20
2019-05-20T08:44:49.996Z,59.78
2019-05-20T08:47:18.413Z,59.67
2019-05-20T08:49:47.079Z,60.38
2019-05-20T08:52:15.664Z,60.02
2019-05-20T08:54:46.769Z,59.55
2019-05-20T08:57:15.193Z,60.02
2019-05-20T08:59:43.586Z,60.91
2019-05-20T09:02:11.988Z,60.62
2019-05-20T09:04:40.406Z,60.97
2019-05-20T09:07:08.792Z,61.11
2019-05-20T09:09:37.272Z,60.80
2019-05-20T09:12:05.911Z,60.09
2019-05-20T09:14:34.308Z,59.96
2019-05-20T09:17:03.036Z,61.03
2019-05-20T09:19:31.427Z,60.17
2019-05-20T09:21:59.833Z,59.99
2019-05-20T09:24:28.259Z,59.60
2019-05-20T09:26:56.659Z,60.17
2019-05-20T09:29:25.424Z,58.36
2019-05-20T09:31:54.167Z,58.12
2019-05-20T09:34:22.865Z,57.08
2019-05-20T09:36:51.333Z,56.46
2019-05-20T09:39:19.736Z,56.06
2019-05-20T09:41:48.167Z,56.58
2019-05-20T09:44:16.562Z,56.09
2019-05-20T09:46:45.654Z,56.36
2019-05-20T09:49:14.074Z,56.64
2019-05-20T09:51:42.566Z,56.42
2019-05-20T09:54:10.940Z,56.15
2019-05-20T09:56:39.340Z,54.29
2019-05-20T09:59:07.772Z,53.47
2019-05-20T10:01:39.861Z,53.44
2019-05-20T10:04:06.357Z,54.13
2019-05-20T10:06:34.779Z,53.48
2019-05-20T10:09:03.857Z,52.67
2019-05-20T10:11:32.276Z,51.56
2019-05-20T10:14:00.676Z,51.23
2019-05-20T10:16:29.092Z,52.74
2019-05-20T10:18:57.490Z,51.94
2019-05-20T10:21:25.899Z,52.34
2019-05-20T10:23:54.313Z,50.13
2019-05-20T10:26:22.740Z,50.80
2019-05-20T10:28:51.166Z,50.58
2019-05-20T10:31:19.564Z,50.82
2019-05-20T10:33:48.042Z,49.71
2019-05-20T10:36:16.457Z,50.08
2019-05-20T10:38:57.343Z,49.95
2019-05-20T10:41:15.017Z,49.61
2019-05-20T10:43:43.409Z,50.29
2019-05-20T10:46:11.895Z,50.12
2019-05-20T10:48:40.299Z,49.57
2019-05-20T10:51:10.479Z,49.44
2019-05-20T10:53:38.954Z,50.44
2019-05-20T10:56:07.406Z,50.47
2019-05-20T10:58:35.820Z,49.88
2019-05-20T11:01:04.245Z,48.73
2019-05-20T11:03:33.000Z,48.96
2019-05-20T11:06:01.400Z,50.27
2019-05-20T11:08:29.818Z,48.66
2019-05-20T11:10:58.222Z,48.02
2019-05-20T11:13:26.711Z,48.26
2019-05-20T11:15:55.131Z,48.12
2019-05-20T11:18:23.548Z,47.33
2019-05-20T11:20:51.948Z,46.53
2019-05-20T11:23:20.376Z,45.96
2019-05-20T11:25:49.121Z,45.70
2019-05-20T11:28:17.552Z,46.36
2019-05-20T11:30:46.094Z,45.12
2019-05-20T11:33:14.515Z,46.16
2019-05-20T11:35:43.089Z,46.22
2019-05-20T11:38:11.714Z,45.75
2019-05-20T11:40:40.084Z,46.48
2019-05-20T11:43:08.481Z,44.97
2019-05-20T11:45:36.900Z,47.05
2019-05-20T11:48:05.307Z,44.88
2019-05-20T11:50:33.702Z,47.32
2019-05-20T11:53:02.201Z,44.74
2019-05-20T11:55:30.643Z,43.84
2019-05-20T11:58:14.618Z,44.71
2019-05-20T12:00:29.212Z,44.54
2019-05-20T12:02:57.638Z,44.07
2019-05-20T12:05:26.034Z,45.99
2019-05-20T12:07:54.441Z,48.06
2019-05-20T12:10:23.173Z,46.05
2019-05-20T12:12:51.666Z,46.22
2019-05-20T12:15:21.692Z,45.05
2019-05-20T12:17:50.085Z,44.84
2019-05-20T12:20:18.638Z,44.42
2019-05-20T12:22:47.103Z,43.33
2019-05-20T12:25:15.633Z,44.85
2019-05-20T12:27:43.986Z,43.65
2019-05-20T12:30:12.865Z,44.15
2019-05-20T12:32:41.233Z,43.21
2019-05-20T12:35:11.256Z,44.87
2019-05-20T12:37:39.650Z,45.08
2019-05-20T12:40:08.833Z,44.69
2019-05-20T12:42:37.647Z,44.58
2019-05-20T12:45:08.114Z,45.17
2019-05-20T12:47:36.599Z,44.88
2019-05-20T12:50:06.453Z,45.73
2019-05-20T12:52:34.856Z,44.32
2019-05-20T12:55:08.561Z,43.76
2019-05-20T12:57:33.560Z,44.86
2019-05-20T13:00:01.984Z,43.94
2019-05-20T13:02:30.406Z,45.74
2019-05-20T13:04:58.799Z,45.72
2019-05-20T13:07:27.265Z,45.09
2019-05-20T13:09:55.681Z,45.75
2019-05-20T13:12:24.072Z,44.96
2019-05-20T13:14:52.469Z,45.67
2019-05-20T13:17:20.886Z,45.36
2019-05-20T13:19:49.371Z,45.85
2019-05-20T13:22:18.069Z,45.90
2019-05-20T13:24:46.477Z,45.69
2019-05-20T13:27:14.892Z,46.33
2019-05-20T13:29:43.305Z,45.89
2019-05-20T13:32:11.695Z,47.34
2019-05-20T13:34:40.113Z,46.88
2019-05-20T13:37:08.512Z,46.93
2019-05-20T13:39:38.566Z,47.06
2019-05-20T13:42:06.968Z,46.35
2019-05-20T13:44:35.363Z,47.45
2019-05-20T13:47:03.976Z,48.08
2019-05-20T13:49:32.377Z,47.19
2019-05-20T13:52:01.336Z,47.47
2019-05-20T13:54:29.860Z,47.34
2019-05-20T13:56:58.290Z,47.47
2019-05-20T13:59:26.696Z,46.43
2019-05-20T14:01:55.094Z,48.49
2019-05-20T14:04:23.579Z,48.43
2019-05-20T14:06:52.005Z,48.43
2019-05-20T14:09:20.395Z,48.89
2019-05-20T14:11:48.803Z,49.42
2019-05-20T14:14:17.469Z,49.51
2019-05-20T14:16:45.875Z,47.95
2019-05-20T14:19:14.297Z,49.42
2019-05-20T14:21:42.716Z,49.09
2019-05-20T14:24:11.119Z,48.54
2019-05-20T14:26:39.567Z,49.10
2019-05-20T14:29:07.943Z,49.50
2019-05-20T14:31:36.350Z,49.77
2019-05-20T14:34:04.771Z,48.46
2019-05-20T14:36:39.977Z,48.53
2019-05-20T14:39:05.272Z,51.35
2019-05-20T14:41:33.682Z,49.43
2019-05-20T14:44:02.195Z,49.53
2019-05-20T14:46:30.578Z,49.92
2019-05-20T14:49:02.167Z,49.35
2019-05-20T14:51:29.154Z,49.74
2019-05-20T14:53:57.535Z,50.04
2019-05-20T14:56:25.967Z,50.79
2019-05-20T14:58:55.748Z,51.06
2019-05-20T15:01:24.304Z,48.87
2019-05-20T15:03:52.725Z,49.98
2019-05-20T15:06:21.118Z,50.49
2019-05-20T15:08:49.553Z,50.78
2019-05-20T15:11:17.953Z,51.51
2019-05-20T15:13:46.389Z,51.17
2019-05-20T15:16:14.772Z,51.11
2019-05-20T15:18:43.196Z,51.14
2019-05-20T15:21:11.597Z,51.41
2019-05-20T15:23:40.086Z,50.96
2019-05-20T15:26:08.430Z,52.37
2019-05-20T15:28:36.887Z,52.16
2019-05-20T15:31:05.314Z,52.39
2019-05-20T15:33:33.720Z,51.98
2019-05-20T15:36:02.159Z,52.27
2019-05-20T15:38:30.571Z,52.52
2019-05-20T15:40:58.978Z,52.06
2019-05-20T15:43:27.387Z,52.83
2019-05-20T15:45:55.791Z,52.20
2019-05-20T15:48:24.216Z,53.42
2019-05-20T15:50:52.609Z,52.67
2019-05-20T15:53:21.007Z,52.95
2019-05-20T15:55:49.453Z,53.81
2019-05-20T15:58:17.896Z,54.67
2019-05-20T16:00:46.295Z,55.16
2019-05-20T16:03:14.734Z,55.01
2019-05-20T16:05:43.147Z,55.04
2019-05-20T16:08:11.563Z,55.18
2019-05-20T16:10:40.325Z,55.38
2019-05-20T16:13:08.738Z,56.42
2019-05-20T16:15:37.137Z,55.52
2019-05-20T16:18:05.551Z,56.64
2019-05-20T16:20:33.955Z,56.17
2019-05-20T16:23:02.670Z,56.29
2019-05-20T16:25:31.460Z,56.44
2019-05-20T16:27:59.847Z,56.64
2019-05-20T16:30:28.247Z,56.03
2019-05-20T16:32:56.680Z,56.86
2019-05-20T16:35:25.078Z,57.10
2019-05-20T16:37:53.477Z,56.38
2019-05-20T16:40:21.889Z,56.75
2019-05-20T16:42:50.298Z,56.95
2019-05-20T16:45:19.557Z,57.51
2019-05-20T16:47:48.219Z,57.68
2019-05-20T16:50:18.352Z,57.61
2019-05-20T16:52:46.754Z,57.92
2019-05-20T16:55:15.888Z,57.70
2019-05-20T16:57:44.302Z,57.14
2019-05-20T17:00:29.952Z,58.12
2019-05-20T17:02:43.531Z,58.12
2019-05-20T17:05:12.083Z,58.37
2019-05-20T17:07:40.502Z,58.21
2019-05-20T17:10:09.147Z,58.75
2019-05-20T17:12:37.585Z,58.85
2019-05-20T17:15:06.241Z,59.03
2019-05-20T17:17:34.632Z,59.68
2019-05-20T17:20:03.272Z,59.60
2019-05-20T17:22:31.708Z,58.94
2019-05-20T17:25:00.122Z,58.90
2019-05-20T17:27:28.595Z,59.48
2019-05-20T17:29:57.016Z,60.24
2019-05-20T17:32:25.409Z,59.55
2019-05-20T17:34:53.823Z,59.64
2019-05-20T17:37:22.251Z,59.72
2019-05-20T17:39:50.660Z,60.42
2019-05-20T17:42:19.169Z,59.50
2019-05-20T17:44:47.597Z,60.31
2019-05-20T17:47:16.081Z,60.13
2019-05-20T17:49:44.479Z,60.25
2019-05-20T17:52:12.906Z,60.47
2019-05-20T17:54:41.303Z,59.94
2019-05-20T17:57:09.704Z,60.37
2019-05-20T17:59:38.137Z,60.63
2019-05-20T18:02:08.256Z,60.52
2019-05-20T18:04:37.011Z,60.73
2019-05-20T18:07:05.508Z,60.31
2019-05-20T18:09:35.548Z,59.33
2019-05-20T18:12:04.033Z,60.07
2019-05-20T18:14:32.438Z,60.48
2019-05-20T18:17:01.097Z,60.65
2019-05-20T18:19:29.492Z,61.00
2019-05-20T18:21:57.908Z,61.66
2019-05-20T18:24:26.314Z,61.77
2019-05-20T18:26:54.723Z,61.68
2019-05-20T18:29:23.130Z,61.53
2019-05-20T18:31:51.689Z,61.47
2019-05-20T18:34:20.302Z,61.97
2019-05-20T18:36:48.725Z,62.54
2019-05-20T18:39:17.128Z,61.67
2019-05-20T18:41:45.549Z,62.48
2019-05-20T18:44:13.959Z,62.56
2019-05-20T18:46:42.347Z,62.75
2019-05-20T18:49:11.015Z,62.60
2019-05-20T18:51:39.430Z,63.04
2019-05-20T18:54:09.116Z,63.20
2019-05-20T18:56:37.537Z,63.43
2019-05-20T18:59:05.973Z,62.82
2019-05-20T19:01:46.050Z,63.32
2019-05-20T19:04:04.664Z,63.81
2019-05-20T19:06:33.091Z,64.27
2019-05-20T19:09:01.500Z,64.59
2019-05-20T19:11:29.909Z,64.83
2019-05-20T19:13:58.381Z,65.95
2019-05-20T19:16:26.777Z,66.42
2019-05-20T19:18:55.281Z,66.21
2019-05-20T19:21:23.691Z,67.06
2019-05-20T19:23:52.374Z,66.73
2019-05-20T19:26:24.849Z,66.35
2019-05-20T19:28:51.500Z,66.22
2019-05-20T19:31:19.967Z,65.64
2019-05-20T19:33:48.399Z,65.69
2019-05-20T19:36:16.857Z,65.38
2019-05-20T19:38:45.633Z,65.40
2019-05-20T19:41:14.029Z,65.23
2019-05-20T19:43:42.784Z,64.69
2019-05-20T19:46:11.256Z,64.59
2019-05-20T19:48:39.774Z,64.62
2019-05-20T19:51:08.532Z,65.57
2019-05-20T19:53:36.961Z,65.05
2019-05-20T19:56:05.360Z,65.60
2019-05-20T19:58:33.759Z,64.95
2019-05-20T20:01:02.185Z,64.50
2019-05-20T20:03:30.593Z,64.78
2019-05-20T20:05:59.001Z,64.99
2019-05-20T20:08:27.419Z,65.50
2019-05-20T20:10:56.085Z,66.65
2019-05-20T20:13:24.504Z,67.08
2019-05-20T20:15:52.980Z,66.98
2019-05-20T20:18:21.382Z,66.18
2019-05-20T20:20:49.868Z,66.64
2019-05-20T20:23:18.355Z,66.23
2019-05-20T20:25:46.786Z,65.94
2019-05-20T20:28:15.181Z,66.25
2019-05-20T20:30:43.600Z,66.55
2019-05-20T20:33:12.003Z,66.69
2019-05-20T20:35:40.416Z,66.83
2019-05-20T20:38:08.822Z,66.94
2019-05-20T20:40:37.242Z,66.39
2019-05-20T20:43:05.637Z,66.45
2019-05-20T20:45:34.050Z,66.36
2019-05-20T20:48:02.454Z,66.63
2019-05-20T20:50:30.891Z,66.29
2019-05-20T20:52:59.289Z,65.99
2019-05-20T20:55:27.720Z,65.66
2019-05-20T20:57:56.109Z,65.82
2019-05-20T21:00:24.858Z,66.01
2019-05-20T21:02:54.015Z,65.83
2019-05-20T21:05:22.459Z,65.96
2019-05-20T21:07:51.762Z,66.35
2019-05-20T21:10:20.446Z,67.16
2019-05-20T21:12:48.856Z,66.93
2019-05-20T21:15:17.280Z,66.91
2019-05-20T21:17:45.677Z,67.14
2019-05-20T21:20:14.244Z,67.90
2019-05-20T21:22:42.647Z,67.88
2019-05-20T21:25:11.216Z,68.30
2019-05-20T21:27:39.608Z,67.54
2019-05-20T21:30:09.268Z,67.46
2019-05-20T21:32:37.774Z,67.36
2019-05-20T21:35:06.614Z,67.42
2019-05-20T21:37:35.012Z,67.70
2019-05-20T21:40:03.708Z,67.64
2019-05-20T21:42:32.115Z,67.77
2019-05-20T21:45:00.517Z,66.57
2019-05-20T21:47:28.936Z,66.01
2019-05-20T21:49:57.344Z,66.54
2019-05-20T21:52:25.832Z,66.34
2019-05-20T21:54:54.229Z,65.99
2019-05-20T21:57:22.886Z,66.53
2019-05-20T21:59:51.298Z,67.24
2019-05-20T22:02:19.724Z,67.39
2019-05-20T22:04:48.397Z,67.50
2019-05-20T22:07:16.798Z,67.68
2019-05-20T22:09:46.210Z,67.82
2019-05-20T22:12:14.617Z,67.38
2019-05-20T22:14:43.034Z,67.16
2019-05-20T22:17:11.492Z,67.22
2019-05-20T22:19:39.894Z,67.07
2019-05-20T22:22:18.827Z,67.38
2019-05-20T22:24:47.231Z,67.55
2019-05-20T22:27:15.638Z,67.25
2019-05-20T22:29:44.049Z,67.02
2019-05-20T22:32:12.755Z,67.58
2019-05-20T22:34:52.725Z,67.73
2019-05-20T22:37:11.300Z,67.81
2019-05-20T22:39:39.694Z,67.91
2019-05-20T22:42:08.580Z,67.42
2019-05-20T22:44:36.908Z,67.51
2019-05-20T22:47:05.307Z,67.42
2019-05-20T22:49:33.971Z,67.61
2019-05-20T22:52:02.374Z,67.92
2019-05-20T22:54:30.768Z,67.87
2019-05-20T22:56:59.168Z,68.05
2019-05-20T22:59:27.598Z,68.30
2019-05-20T23:01:56.265Z,68.50
2019-05-20T23:04:24.674Z,68.56
2019-05-20T23:06:53.316Z,68.84
2019-05-20T23:09:21.732Z,68.42
2019-05-20T23:11:50.146Z,68.27
2019-05-20T23:14:18.558Z,68.80
2019-05-20T23:16:46.969Z,68.85
2019-05-20T23:19:15.380Z,68.34
2019-05-20T23:21:43.770Z,68.21
2019-05-20T23:24:12.193Z,68.08
2019-05-20T23:26:40.659Z,68.42
2019-05-20T23:29:09.078Z,68.56
2019-05-20T23:31:37.481Z,68.22
2019-05-20T23:34:12.627Z,67.59
2019-05-20T23:36:36.007Z,67.76
2019-05-20T23:39:07.422Z,67.22
2019-05-20T23:41:36.200Z,67.81
2019-05-20T23:44:04.605Z,68.08
2019-05-20T23:46:32.998Z,68.04
2019-05-20T23:49:01.413Z,68.00
2019-05-20T23:51:29.820Z,68.33
2019-05-20T23:53:58.218Z,68.29
2019-05-20T23:56:26.615Z,68.78
2019-05-20T23:58:55.041Z,68.88
